createdAt,value
2023-01-11T00:01:07.697Z,4.80
2023-01-11T00:03:34.659Z,4.70
2023-01-11T00:06:01.398Z,4.80
2023-01-11T00:08:28.741Z,4.80
2023-01-11T00:10:55.646Z,4.80
2023-01-11T00:13:22.332Z,4.90
2023-01-11T00:15:48.978Z,4.90
2023-01-11T00:18:15.578Z,4.90
2023-01-11T00:20:42.847Z,4.90
2023-01-11T00:23:09.632Z,4.80
2023-01-11T00:25:36.673Z,4.90
2023-01-11T00:28:04.421Z,4.90
2023-01-11T00:30:31.574Z,4.90
2023-01-11T00:32:59.999Z,4.90
2023-01-11T00:35:28.006Z,4.90
2023-01-11T00:37:54.664Z,4.90
2023-01-11T00:40:21.634Z,4.90
2023-01-11T00:43:07.083Z,4.90
2023-01-11T00:45:52.876Z,4.90
2023-01-11T00:48:19.504Z,4.90
2023-01-11T00:50:46.069Z,4.90
2023-01-11T00:53:14.343Z,4.90
2023-01-11T00:55:41.040Z,4.90
2023-01-11T00:58:07.671Z,4.90
2023-01-11T01:00:34.300Z,4.90
2023-01-11T01:03:00.976Z,4.90
2023-01-11T01:05:27.645Z,4.90
2023-01-11T01:07:54.327Z,5.00
2023-01-11T01:10:21.061Z,5.00
2023-01-11T01:13:06.893Z,5.00
2023-01-11T01:15:34.209Z,5.00
2023-01-11T01:18:01.055Z,5.00
2023-01-11T01:20:27.943Z,5.00
2023-01-11T01:22:54.667Z,5.00
2023-01-11T01:25:21.322Z,5.00
2023-01-11T01:27:47.956Z,5.00
2023-01-11T01:30:14.728Z,5.00
2023-01-11T01:32:41.342Z,5.00
2023-01-11T01:35:08.804Z,5.00
2023-01-11T01:37:35.428Z,5.00
2023-01-11T01:40:02.052Z,5.00
2023-01-11T01:42:28.646Z,5.00
2023-01-11T01:44:58.528Z,5.00
2023-01-11T01:47:43.225Z,5.10
2023-01-11T01:50:31.968Z,5.10
2023-01-11T01:53:12.724Z,5.10
2023-01-11T01:55:43.238Z,5.10
2023-01-11T01:58:16.418Z,5.20
2023-01-11T02:00:45.414Z,5.20
2023-01-11T02:03:18.510Z,5.20
2023-01-11T02:05:45.756Z,5.20
2023-01-11T02:08:25.162Z,5.20
2023-01-11T02:10:54.202Z,5.30
2023-01-11T02:13:21.239Z,5.30
2023-01-11T02:16:07.392Z,5.20
2023-01-11T02:18:36.622Z,5.30
2023-01-11T02:21:29.992Z,5.20
2023-01-11T02:24:41.580Z,5.20
2023-01-11T02:27:26.396Z,5.20
2023-01-11T02:30:23.519Z,5.20
2023-01-11T02:33:11.916Z,5.30
2023-01-11T02:35:41.263Z,5.30
2023-01-11T02:38:32.164Z,5.30
2023-01-11T02:41:28.272Z,5.40
2023-01-11T02:44:27.418Z,5.40
2023-01-11T02:47:00.958Z,5.40
2023-01-11T02:49:39.191Z,5.40
2023-01-11T02:52:11.752Z,5.40
2023-01-11T02:54:41.692Z,5.40
2023-01-11T02:57:10.212Z,5.40
2023-01-11T02:59:37.947Z,5.50
2023-01-11T03:02:04.613Z,5.50
2023-01-11T03:04:37.072Z,5.40
2023-01-11T03:07:23.157Z,5.50
2023-01-11T03:10:15.950Z,5.50
2023-01-11T03:13:04.130Z,5.60
2023-01-11T03:15:42.286Z,5.60
2023-01-11T03:18:37.365Z,5.60
2023-01-11T03:21:22.545Z,5.60
2023-01-11T03:24:04.329Z,5.60
2023-01-11T03:26:48.002Z,5.60
2023-01-11T03:29:39.809Z,5.60
2023-01-11T03:32:26.033Z,5.60
2023-01-11T03:35:15.975Z,5.70
2023-01-11T03:37:45.890Z,5.70
2023-01-11T03:40:33.418Z,5.70
2023-01-11T03:43:10.947Z,5.80
2023-01-11T03:45:58.183Z,5.70
2023-01-11T03:48:32.315Z,5.70
2023-01-11T03:51:00.916Z,5.80
2023-01-11T03:53:31.633Z,5.80
2023-01-11T03:56:00.346Z,5.80
2023-01-11T03:58:27.772Z,5.80
2023-01-11T04:00:56.635Z,5.90
2023-01-11T04:03:24.870Z,5.90
2023-01-11T04:05:57.979Z,5.90
2023-01-11T04:08:24.610Z,5.90
2023-01-11T04:10:51.220Z,5.90
2023-01-11T04:13:17.872Z,5.90
2023-01-11T04:15:44.503Z,6.00
2023-01-11T04:18:11.219Z,6.00
2023-01-11T04:20:40.228Z,6.00
2023-01-11T04:23:08.091Z,6.00
2023-01-11T04:25:34.732Z,6.00
2023-01-11T04:28:01.698Z,6.10
2023-01-11T04:30:28.327Z,6.10
2023-01-11T04:32:58.074Z,6.10
2023-01-11T04:35:24.891Z,6.10
2023-01-11T04:37:55.637Z,6.10
2023-01-11T04:40:23.067Z,6.10
2023-01-11T04:42:49.828Z,6.20
2023-01-11T04:45:16.663Z,6.10
2023-01-11T04:47:43.282Z,6.20
2023-01-11T04:50:11.829Z,6.20
2023-01-11T04:52:40.517Z,6.20
2023-01-11T04:55:07.732Z,6.20
2023-01-11T04:57:34.477Z,6.20
2023-01-11T05:00:01.164Z,6.20
2023-01-11T05:02:27.891Z,6.20
2023-01-11T05:04:54.482Z,6.30
2023-01-11T05:07:21.104Z,6.30
2023-01-11T05:09:47.760Z,6.30
2023-01-11T05:12:14.345Z,6.30
2023-01-11T05:14:40.962Z,6.40
2023-01-11T05:17:07.564Z,6.40
2023-01-11T05:19:34.200Z,6.40
2023-01-11T05:22:00.831Z,6.40
2023-01-11T05:24:27.503Z,6.40
2023-01-11T05:26:54.220Z,6.40
2023-01-11T05:29:21.737Z,6.40
2023-01-11T05:31:49.513Z,6.40
2023-01-11T05:34:17.336Z,6.40
2023-01-11T05:36:45.091Z,6.40
2023-01-11T05:39:13.669Z,6.40
2023-01-11T05:41:40.562Z,6.50
2023-01-11T05:44:29.581Z,6.50
2023-01-11T05:46:56.199Z,6.50
2023-01-11T05:49:23.249Z,6.60
2023-01-11T05:51:49.905Z,6.60
2023-01-11T05:54:16.526Z,6.60
2023-01-11T05:56:43.459Z,6.60
2023-01-11T05:59:10.711Z,6.60
2023-01-11T06:01:37.917Z,6.60
2023-01-11T06:04:05.148Z,6.60
2023-01-11T06:06:32.807Z,6.60
2023-01-11T06:08:59.388Z,6.60
2023-01-11T06:11:26.074Z,6.60
2023-01-11T06:13:52.729Z,6.70
2023-01-11T06:16:20.947Z,6.70
2023-01-11T06:18:50.901Z,6.70
2023-01-11T06:21:18.421Z,6.70
2023-01-11T06:23:47.395Z,6.70
2023-01-11T06:26:16.646Z,6.70
2023-01-11T06:28:43.682Z,6.80
2023-01-11T06:31:11.074Z,6.80
2023-01-11T06:33:38.103Z,6.80
2023-01-11T06:36:07.776Z,6.90
2023-01-11T06:38:34.543Z,6.80
2023-01-11T06:41:02.837Z,6.80
2023-01-11T06:43:31.025Z,6.80
2023-01-11T06:45:58.913Z,6.90
2023-01-11T06:48:26.741Z,6.90
2023-01-11T06:50:56.219Z,6.90
2023-01-11T06:53:26.686Z,6.90
2023-01-11T06:55:56.585Z,6.90
2023-01-11T06:58:24.566Z,6.90
2023-01-11T07:00:52.795Z,6.90
2023-01-11T07:03:24.319Z,6.90
2023-01-11T07:05:52.260Z,7.00
2023-01-11T07:08:19.239Z,6.90
2023-01-11T07:10:46.231Z,7.00
2023-01-11T07:13:16.027Z,7.00
2023-01-11T07:15:48.383Z,7.00
2023-01-11T07:18:15.084Z,7.00
2023-01-11T07:20:41.701Z,7.00
2023-01-11T07:23:08.735Z,7.00
2023-01-11T07:25:35.558Z,7.00
2023-01-11T07:28:04.652Z,7.00
2023-01-11T07:30:44.601Z,7.10
2023-01-11T07:33:18.793Z,7.10
2023-01-11T07:35:47.765Z,7.10
2023-01-11T07:38:14.359Z,7.10
2023-01-11T07:40:41.574Z,7.10
2023-01-11T07:43:14.304Z,7.10
2023-01-11T07:45:49.453Z,7.20
2023-01-11T07:48:21.253Z,7.20
2023-01-11T07:50:48.698Z,7.30
2023-01-11T07:53:15.475Z,7.30
2023-01-11T07:55:42.367Z,7.30
2023-01-11T07:58:12.312Z,7.40
2023-01-11T08:00:40.633Z,7.40
2023-01-11T08:03:07.368Z,7.30
2023-01-11T08:05:34.099Z,7.30
2023-01-11T08:08:00.727Z,7.20
2023-01-11T08:10:27.400Z,7.30
2023-01-11T08:13:12.930Z,7.30
2023-01-11T08:15:42.651Z,7.40
2023-01-11T08:18:11.424Z,7.30
2023-01-11T08:20:38.675Z,7.40
2023-01-11T08:23:07.447Z,7.40
2023-01-11T08:25:34.905Z,7.30
2023-01-11T08:28:03.569Z,7.40
2023-01-11T08:30:30.658Z,7.40
2023-01-11T08:32:57.535Z,7.40
2023-01-11T08:35:25.481Z,7.40
2023-01-11T08:37:52.179Z,7.50
2023-01-11T08:40:19.038Z,7.40
2023-01-11T08:42:45.615Z,7.50
2023-01-11T08:45:12.331Z,7.50
2023-01-11T08:47:38.941Z,7.50
2023-01-11T08:50:06.039Z,7.50
2023-01-11T08:52:32.648Z,7.60
2023-01-11T08:54:59.265Z,7.70
2023-01-11T08:57:25.846Z,7.70
2023-01-11T08:59:52.446Z,7.70
2023-01-11T09:02:19.058Z,7.70
2023-01-11T09:04:45.620Z,7.70
2023-01-11T09:07:12.205Z,7.80
2023-01-11T09:09:38.906Z,7.90
2023-01-11T09:12:06.076Z,7.80
2023-01-11T09:14:32.768Z,7.90
2023-01-11T09:16:59.562Z,7.90
2023-01-11T09:19:26.237Z,7.90
2023-01-11T09:21:53.566Z,7.90
2023-01-11T09:24:20.274Z,7.80
2023-01-11T09:26:46.972Z,8.00
2023-01-11T09:29:13.917Z,7.90
2023-01-11T09:31:41.254Z,8.00
2023-01-11T09:34:10.849Z,8.00
2023-01-11T09:36:39.824Z,8.00
2023-01-11T09:39:10.564Z,8.00
2023-01-11T09:42:06.115Z,8.00
2023-01-11T09:44:35.650Z,8.00
2023-01-11T09:47:20.562Z,8.00
2023-01-11T09:49:56.219Z,8.10
2023-01-11T09:52:39.988Z,8.10
2023-01-11T09:55:19.821Z,8.10
2023-01-11T09:58:18.446Z,8.10
2023-01-11T10:01:08.320Z,8.10
2023-01-11T10:03:58.447Z,8.20
2023-01-11T10:06:42.275Z,8.20
2023-01-11T10:18:32.084Z,8.20
2023-01-11T10:18:52.915Z,8.20
2023-01-11T10:21:24.962Z,8.30
2023-01-11T10:24:01.229Z,8.20
2023-01-11T10:26:36.020Z,8.30
2023-01-11T10:29:16.357Z,8.20
2023-01-11T10:32:11.523Z,8.30
2023-01-11T10:35:18.177Z,8.30
2023-01-11T10:38:04.129Z,8.40
2023-01-11T10:41:03.191Z,8.50
2023-01-11T10:43:35.166Z,8.50
2023-01-11T10:46:23.056Z,8.50
2023-01-11T10:49:03.674Z,8.60
2023-01-11T10:51:44.369Z,8.50
2023-01-11T10:54:14.003Z,8.60
2023-01-11T10:57:01.579Z,8.60
2023-01-11T11:00:14.376Z,8.60
2023-01-11T11:03:02.663Z,8.70
2023-01-11T11:05:38.845Z,8.70
2023-01-11T11:08:16.493Z,8.60
2023-01-11T11:10:48.933Z,8.70
2023-01-11T11:13:43.182Z,8.80
2023-01-11T11:16:22.363Z,8.80
2023-01-11T11:18:54.006Z,8.90
2023-01-11T11:21:31.634Z,9.00
2023-01-11T11:24:05.931Z,9.10
2023-01-11T11:26:38.294Z,9.10
2023-01-11T11:29:07.119Z,9.10
2023-01-11T11:31:36.795Z,9.10
2023-01-11T11:34:06.803Z,9.10
2023-01-11T11:36:48.841Z,9.00
2023-01-11T11:39:23.712Z,9.00
2023-01-11T11:41:58.717Z,9.00
2023-01-11T11:44:28.400Z,9.00
2023-01-11T11:46:59.108Z,9.00
2023-01-11T11:49:26.140Z,9.10
2023-01-11T11:51:53.689Z,9.00
2023-01-11T11:54:29.707Z,9.10
2023-01-11T11:56:58.423Z,9.10
2023-01-11T11:59:29.730Z,9.20
2023-01-11T12:02:00.609Z,9.20
2023-01-11T12:04:36.708Z,9.20
2023-01-11T12:07:21.819Z,9.20
2023-01-11T12:09:55.361Z,9.20
2023-01-11T12:12:25.942Z,9.20
2023-01-11T12:15:15.936Z,9.20
2023-01-11T12:17:43.408Z,9.20
2023-01-11T12:20:22.469Z,9.30
2023-01-11T12:22:49.881Z,9.30
2023-01-11T12:25:25.269Z,9.30
2023-01-11T12:28:17.151Z,9.40
2023-01-11T12:31:04.932Z,9.40
2023-01-11T12:33:57.128Z,9.30
2023-01-11T12:36:38.515Z,9.20
2023-01-11T12:39:12.032Z,9.30
2023-01-11T12:42:23.609Z,9.30
2023-01-11T12:45:08.051Z,9.30
2023-01-11T12:48:06.843Z,9.30
2023-01-11T12:51:00.818Z,9.30
2023-01-11T12:53:49.799Z,9.30
2023-01-11T12:56:47.367Z,9.40
2023-01-11T12:59:26.024Z,9.40
2023-01-11T13:01:55.489Z,9.40
2023-01-11T13:04:51.633Z,9.40
2023-01-11T13:07:27.390Z,9.40
2023-01-11T13:10:00.561Z,9.50
2023-01-11T13:12:38.762Z,9.40
2023-01-11T13:15:19.817Z,9.50
2023-01-11T13:17:55.394Z,9.50
2023-01-11T13:20:58.648Z,9.50
2023-01-11T13:23:39.288Z,9.50
2023-01-11T13:26:27.739Z,9.40
2023-01-11T13:29:05.406Z,9.50
2023-01-11T13:31:34.653Z,9.50
2023-01-11T13:34:22.326Z,9.50
2023-01-11T13:36:55.370Z,9.50
2023-01-11T13:39:39.008Z,9.50
2023-01-11T13:42:15.682Z,9.50
2023-01-11T13:44:51.084Z,9.50
2023-01-11T13:47:21.288Z,9.50
2023-01-11T13:49:56.315Z,9.40
2023-01-11T13:52:28.429Z,9.40
2023-01-11T13:55:20.902Z,9.40
2023-01-11T13:57:57.408Z,9.40
2023-01-11T14:00:37.482Z,9.40
2023-01-11T14:03:25.908Z,9.40
2023-01-11T14:06:07.609Z,9.30
2023-01-11T14:08:45.832Z,9.30
2023-01-11T14:11:33.011Z,9.30
2023-01-11T14:14:17.721Z,9.20
2023-01-11T14:17:13.236Z,9.20
2023-01-11T14:19:53.474Z,9.10
2023-01-11T14:22:38.989Z,9.10
2023-01-11T14:25:13.704Z,9.10
2023-01-11T14:28:18.007Z,9.00
2023-01-11T14:31:08.832Z,9.00
2023-01-11T14:33:54.218Z,8.90
2023-01-11T14:36:58.506Z,8.90
2023-01-11T14:39:52.782Z,8.90
2023-01-11T14:43:01.316Z,8.80
2023-01-11T14:46:05.169Z,8.80
2023-01-11T14:49:10.720Z,8.70
2023-01-11T14:51:49.127Z,8.70
2023-01-11T14:54:25.836Z,8.70
2023-01-11T14:56:55.481Z,8.60
2023-01-11T14:59:24.875Z,8.60
2023-01-11T15:02:03.657Z,8.50
2023-01-11T15:04:30.505Z,8.50
2023-01-11T15:06:57.628Z,8.40
2023-01-11T15:09:48.378Z,8.30
2023-01-11T15:12:16.439Z,8.30
2023-01-11T15:14:55.487Z,8.20
2023-01-11T15:17:45.340Z,8.20
2023-01-11T15:20:15.591Z,8.10
2023-01-11T15:22:43.470Z,8.10
2023-01-11T15:25:28.254Z,8.00
2023-01-11T15:27:56.030Z,7.90
2023-01-11T15:30:31.518Z,7.80
2023-01-11T15:33:17.100Z,7.80
2023-01-11T15:35:56.191Z,7.80
2023-01-11T15:38:49.459Z,7.70
2023-01-11T15:41:37.946Z,7.60
2023-01-11T15:44:40.750Z,7.60
2023-01-11T15:47:20.808Z,7.60
2023-01-11T15:50:10.267Z,7.60
2023-01-11T15:53:22.804Z,7.50
2023-01-11T15:56:04.251Z,7.50
2023-01-11T15:59:06.237Z,7.50
2023-01-11T16:01:58.785Z,7.40
2023-01-11T16:04:40.545Z,7.40
2023-01-11T16:07:25.615Z,7.30
2023-01-11T16:10:15.041Z,7.30
2023-01-11T16:12:51.213Z,7.20
2023-01-11T16:15:20.591Z,7.20
2023-01-11T16:17:48.231Z,7.20
2023-01-11T16:20:20.723Z,7.10
2023-01-11T16:23:01.079Z,7.10
2023-01-11T16:25:31.142Z,7.00
2023-01-11T16:27:59.566Z,7.10
2023-01-11T16:30:27.876Z,7.00
2023-01-11T16:33:21.437Z,7.10
2023-01-11T16:35:48.924Z,7.00
2023-01-11T16:38:21.801Z,6.90
2023-01-11T16:40:52.578Z,6.90
2023-01-11T16:43:24.737Z,6.90
2023-01-11T16:45:56.454Z,6.90
2023-01-11T16:48:26.886Z,6.80
2023-01-11T16:50:58.347Z,6.70
2023-01-11T16:53:26.251Z,6.70
2023-01-11T16:56:05.147Z,6.60
2023-01-11T16:58:37.913Z,6.60
2023-01-11T17:01:13.869Z,6.60
2023-01-11T17:03:52.903Z,6.50
2023-01-11T17:06:24.742Z,6.40
2023-01-11T17:08:54.370Z,6.40
2023-01-11T17:11:25.021Z,6.40
2023-01-11T17:14:22.847Z,6.40
2023-01-11T17:16:53.091Z,6.30
2023-01-11T17:19:26.879Z,6.30
2023-01-11T17:22:01.979Z,6.40
2023-01-11T17:24:29.105Z,6.40
2023-01-11T17:27:00.213Z,6.40
2023-01-11T17:29:36.747Z,6.40
2023-01-11T17:32:07.523Z,6.40
2023-01-11T17:34:36.712Z,6.40
2023-01-11T17:37:10.392Z,6.40
2023-01-11T17:39:44.917Z,6.40
2023-01-11T17:42:33.439Z,6.40
2023-01-11T17:45:14.508Z,6.40
2023-01-11T17:47:47.262Z,6.40
2023-01-11T17:50:22.051Z,6.30
2023-01-11T17:52:54.767Z,6.30
2023-01-11T17:55:27.136Z,6.20
2023-01-11T17:58:18.854Z,6.10
2023-01-11T18:01:09.629Z,6.20
2023-01-11T18:03:57.685Z,6.10
2023-01-11T18:06:42.063Z,6.10
2023-01-11T18:09:24.403Z,6.20
2023-01-11T18:11:52.357Z,6.20
2023-01-11T18:14:26.323Z,6.20
2023-01-11T18:17:00.431Z,6.20
2023-01-11T18:19:37.936Z,6.20
2023-01-11T18:22:30.385Z,6.10
2023-01-11T18:25:04.128Z,6.10
2023-01-11T18:27:34.739Z,6.10
2023-01-11T18:30:06.194Z,6.10
2023-01-11T18:32:41.027Z,6.10
2023-01-11T18:35:18.325Z,6.10
2023-01-11T18:37:45.264Z,6.00
2023-01-11T18:40:16.369Z,5.90
2023-01-11T18:42:46.842Z,6.00
2023-01-11T18:45:14.456Z,6.00
2023-01-11T18:47:41.077Z,6.00
2023-01-11T18:50:09.995Z,6.00
2023-01-11T18:52:37.102Z,6.00
2023-01-11T18:55:05.078Z,5.90
2023-01-11T18:57:31.710Z,6.00
2023-01-11T18:59:58.371Z,6.00
2023-01-11T19:02:28.989Z,6.10
2023-01-11T19:04:56.885Z,6.10
2023-01-11T19:07:24.979Z,6.00
2023-01-11T19:09:54.676Z,6.10
2023-01-11T19:12:21.906Z,6.00
2023-01-11T19:14:48.531Z,6.10
2023-01-11T19:17:15.252Z,6.10
2023-01-11T19:19:42.073Z,6.10
2023-01-11T19:22:09.918Z,6.10
2023-01-11T19:24:36.871Z,6.10
2023-01-11T19:27:03.901Z,6.10
2023-01-11T19:29:31.149Z,6.10
2023-01-11T19:31:57.732Z,6.00
2023-01-11T19:34:24.689Z,5.90
2023-01-11T19:36:52.248Z,5.80
2023-01-11T19:39:18.969Z,5.80
2023-01-11T19:41:54.724Z,5.80
2023-01-11T19:44:22.408Z,5.80
2023-01-11T19:46:56.881Z,5.80
2023-01-11T19:49:27.338Z,5.80
2023-01-11T19:51:53.937Z,5.80
2023-01-11T19:54:21.608Z,5.70
2023-01-11T19:56:51.639Z,5.70
2023-01-11T19:59:20.020Z,5.70
2023-01-11T20:01:47.925Z,5.70
2023-01-11T20:04:16.340Z,5.70
2023-01-11T20:06:53.899Z,5.60
2023-01-11T20:09:22.048Z,5.70
2023-01-11T20:11:49.401Z,5.70
2023-01-11T20:14:19.804Z,5.70
2023-01-11T20:16:46.598Z,5.60
2023-01-11T20:19:13.429Z,5.50
2023-01-11T20:21:40.111Z,5.40
2023-01-11T20:24:07.001Z,5.40
2023-01-11T20:26:34.356Z,5.40
2023-01-11T20:29:02.008Z,5.40
2023-01-11T20:31:32.038Z,5.40
2023-01-11T20:33:59.888Z,5.30
2023-01-11T20:36:27.532Z,5.20
2023-01-11T20:38:54.842Z,5.20
2023-01-11T20:41:43.985Z,5.20
2023-01-11T20:44:11.209Z,5.20
2023-01-11T20:46:37.963Z,5.30
2023-01-11T20:49:06.039Z,5.30
2023-01-11T20:51:33.035Z,5.30
2023-01-11T20:54:00.050Z,5.30
2023-01-11T20:56:26.774Z,5.30
2023-01-11T20:58:53.424Z,5.30
2023-01-11T21:01:26.540Z,5.30
2023-01-11T21:04:00.702Z,5.30
2023-01-11T21:06:27.644Z,5.30
2023-01-11T21:08:58.799Z,5.30
2023-01-11T21:11:25.687Z,5.20
2023-01-11T21:13:53.862Z,5.30
2023-01-11T21:16:24.259Z,5.30
2023-01-11T21:19:01.956Z,5.30
2023-01-11T21:21:30.628Z,5.20
2023-01-11T21:23:59.359Z,5.10
2023-01-11T21:26:27.419Z,5.10
2023-01-11T21:28:58.682Z,5.10
2023-01-11T21:31:30.776Z,5.10
2023-01-11T21:33:58.447Z,5.10
2023-01-11T21:36:29.300Z,5.10
2023-01-11T21:38:57.270Z,5.10
2023-01-11T21:41:48.762Z,5.10
2023-01-11T21:44:17.279Z,5.00
2023-01-11T21:46:44.092Z,5.10
2023-01-11T21:49:12.177Z,5.10
2023-01-11T21:51:39.439Z,5.10
2023-01-11T21:54:11.266Z,5.20
2023-01-11T21:56:38.574Z,5.30
2023-01-11T21:59:05.228Z,5.30
2023-01-11T22:01:31.819Z,5.50
2023-01-11T22:03:58.808Z,5.60
2023-01-11T22:06:25.521Z,5.60
2023-01-11T22:08:52.493Z,5.70
2023-01-11T22:11:19.120Z,5.60
2023-01-11T22:13:45.942Z,5.70
2023-01-11T22:16:15.387Z,5.60
2023-01-11T22:18:42.892Z,5.60
2023-01-11T22:21:15.006Z,5.60
2023-01-11T22:23:41.950Z,5.60
2023-01-11T22:26:11.835Z,5.60
2023-01-11T22:28:57.241Z,5.70
2023-01-11T22:31:25.357Z,5.60
2023-01-11T22:33:52.142Z,5.60
2023-01-11T22:36:19.380Z,5.60
2023-01-11T22:38:46.792Z,5.70
2023-01-11T22:41:14.725Z,5.60
2023-01-11T22:43:43.150Z,5.60
2023-01-11T22:46:23.566Z,5.60
2023-01-11T22:48:51.308Z,5.60
2023-01-11T22:51:21.953Z,5.70
2023-01-11T22:53:50.638Z,5.60
2023-01-11T22:56:19.049Z,5.70
2023-01-11T22:58:46.853Z,5.70
2023-01-11T23:01:25.113Z,5.70
2023-01-11T23:03:52.913Z,5.70
2023-01-11T23:06:22.560Z,5.80
2023-01-11T23:08:49.291Z,5.80
2023-01-11T23:11:38.747Z,5.80
2023-01-11T23:14:08.496Z,5.80
2023-01-11T23:16:35.339Z,5.70
2023-01-11T23:19:02.458Z,5.70
2023-01-11T23:21:29.216Z,5.80
2023-01-11T23:23:55.817Z,5.80
2023-01-11T23:26:22.755Z,5.80
2023-01-11T23:28:50.437Z,5.80
2023-01-11T23:31:20.161Z,5.90
2023-01-11T23:33:48.725Z,5.90
2023-01-11T23:36:17.308Z,5.90
2023-01-11T23:38:44.042Z,5.90
2023-01-11T23:41:32.060Z,6.00
2023-01-11T23:43:59.085Z,6.00
2023-01-11T23:46:44.569Z,6.00
2023-01-11T23:49:14.391Z,6.10
2023-01-11T23:51:41.614Z,6.10
2023-01-11T23:54:08.324Z,6.10
2023-01-11T23:56:35.634Z,6.10
2023-01-11T23:59:03.004Z,6.10
